27 czerwca 2022

Czas Kod Pogoda Temp. Widoczność Sufit Wiatr METAR/SPECI
5:00 pm
V
63 °F 6¼ mi+ - 210° 210° 8 kt METAR LFBO 271500Z AUTO 21008KT 180V240 9999 //////TCU 17/14 Q1021 BECMG FEW018 SCT040 BKN070
4:30 pm
V
63 °F 6¼ mi+ 13.000 ft 170° 170° 7 kt METAR LFBO 271430Z AUTO 17007KT 9999 FEW024/// BKN130/// ///TCU 17/15 Q1021 BECMG FEW018 SCT040 BKN070
4:00 pm
V
63 °F 6¼ mi+ - 200° 200° 6 kt METAR LFBO 271400Z AUTO 20006KT 9999 //////TCU 17/15 Q1021 NOSIG
3:30 pm
V
63 °F 6¼ mi+ 11.000 ft 180° 180° 4 kt METAR LFBO 271330Z AUTO 18004KT 9999 -RA FEW034/// SCT082/// BKN110/// ///TCU 17/14 Q1021 NOSIG
3:00 pm
V
63 °F 6¼ mi+ 11.000 ft Var Var 3 kt METAR LFBO 271300Z AUTO VRB03KT 9999 FEW033/// BKN110/// BKN140/// ///TCU 17/13 Q1022 NOSIG
2:30 pm
V
63 °F 6¼ mi+ 6.400 ft Var Var 2 kt METAR LFBO 271230Z AUTO VRB02KT 9999 FEW030/// SCT046/// BKN064/// ///CB 17/14 Q1022 NOSIG
2:00 pm
V
61 °F 6¼ mi+ 11.000 ft 310° 310° 4 kt METAR LFBO 271200Z AUTO 31004KT 9999 FEW036/// SCT076/// BKN110/// ///CB 16/14 Q1021 NOSIG
1:30 pm
V
61 °F 6¼ mi+ 6.400 ft 330° 330° 3 kt METAR LFBO 271130Z AUTO 33003KT 290V360 9999 -RA SCT018/// SCT040/// BKN064/// //////TCU 16/13 Q1021 TEMPO BKN013 FEW050CB
1:00 pm
V
61 °F 6¼ mi+ 15.000 ft 350° 350° 3 kt METAR LFBO 271100Z AUTO 35003KT 320V030 9999 FEW025/// SCT140/// BKN150/// ///CB 16/14 Q1021 TEMPO BKN013 FEW050CB
12:30 pm
V
61 °F 6¼ mi+ 12.000 ft 360° 360° 5 kt METAR LFBO 271030Z AUTO 36005KT 9999 FEW016/// BKN120/// //////CB 16/13 Q1021 TEMPO BKN013 FEW050CB
12:00 pm
V
61 °F 6¼ mi+ 5.400 ft 320° 320° 6 kt METAR LFBO 271000Z AUTO 32006KT 9999 FEW018/// SCT039/// BKN054/// ///CB 16/14 Q1021 TEMPO BKN013 FEW050CB
11:30 am
M
61 °F 6¼ mi+ 1.600 ft 310° 310° 5 kt METAR LFBO 270930Z AUTO 31005KT 9999 -RA BKN016/// BKN052/// BKN072/// ///CB 16/14 Q1021 TEMPO BKN013 FEW050CB
11:00 am
M
61 °F 6¼ mi+ 1.500 ft 280° 280° 4 kt METAR LFBO 270900Z AUTO 28004KT 250V310 9999 BKN015/// BKN031/// BKN070/// ///CB 16/14 Q1021 BECMG SCT012 BKN020
10:30 am
V
61 °F 6¼ mi+ 7.000 ft 290° 290° 6 kt METAR LFBO 270830Z AUTO 29006KT 9999 FEW011/// SCT019/// OVC070/// ///CB 16/14 Q1020 BECMG SCT012 BKN020
10:00 am
M
59 °F 6¼ mi+ 1.100 ft 270° 270° 5 kt METAR LFBO 270800Z AUTO 27005KT 210V290 9999 BKN011/// BKN018/// OVC070/// //////CB 15/14 Q1020 BECMG SCT012 BKN020
9:30 am
M
59 °F 6¼ mi+ 1.000 ft 280° 280° 6 kt METAR LFBO 270730Z AUTO 28006KT 9999 BKN010/// BKN018/// OVC064/// ///TCU 15/14 Q1020 BECMG SCT012 BKN020
9:00 am
M
59 °F 6¼ mi+ 1.600 ft 310° 310° 8 kt METAR LFBO 270700Z AUTO 31008KT 9999 SCT010 BKN016 OVC060 15/14 Q1019 TEMPO 4000 RA BKN008 OVC020 FEW050CB
8:30 am
I
59 °F 1½ mi 5.200 ft 320° 320° 6 kt METAR LFBO 270630Z AUTO 32006KT 290V360 9999 2500 SCT009 SCT025 BKN052 15/13 Q1019 TEMPO 4000 RA BKN008 OVC020 FEW050CB
8:00 am
M
59 °F 6¼ mi+ 2.400 ft 320° 320° 8 kt METAR LFBO 270600Z AUTO 32008KT 9999 FEW007 BKN024 BKN033 15/14 Q1018 TEMPO 4000 RA BKN008 OVC020 FEW050CB
7:30 am
V
59 °F 6¼ mi+ 3.800 ft 320° 320° 6 kt METAR LFBO 270530Z AUTO 32006KT 9999 -RA FEW008 SCT028 BKN038 15/15 Q1019 TEMPO 4000 RA BKN008 BKN040 FEW060CB
7:00 am
M
59 °F 6¼ mi+ 1.700 ft 290° 290° 7 kt METAR LFBO 270500Z AUTO 29007KT 260V320 9999 -RA SCT008/// BKN017/// BKN022/// //////TCU 15/15 Q1019 TEMPO 4000 RA BKN008 BKN040 FEW060CB
6:30 am
I
59 °F 6¼ mi+ 900 ft 280° 280° 8 kt METAR LFBO 270430Z AUTO 28008KT 9999 BKN009/// OVC100/// ///TCU 15/15 Q1019 TEMPO 4000 RA BKN008 BKN040 FEW060CB
6:00 am
V
59 °F 6¼ mi+ 6.000 ft 280° 280° 7 kt METAR LFBO 270400Z AUTO 28007KT 9999 -RA SCT007/// SCT045/// BKN060/// //////TCU 15/15 Q1018 TEMPO 4000 RA BKN008 BKN040 FEW060CB
5:30 am
M
59 °F 5⅝ mi 2.100 ft 280° 280° 9 kt METAR LFBO 270330Z AUTO 28009KT 9000 RA FEW007/// BKN021/// BKN054/// //////TCU 15/15 Q1018 TEMPO 4000 RA BKN008 BKN040 FEW060CB
5:00 am
M
59 °F 3¾ mi 1.200 ft 270° 270° 10 kt METAR LFBO 270300Z AUTO 27010KT 6000 RA SCT007/// BKN012/// BKN023/// //////CB 15/15 Q1018 TEMPO 4000 RA BKN008 BKN040 FEW060CB
4:30 am
V
59 °F 6¼ mi+ 8.000 ft 280° 280° 5 kt METAR LFBO 270230Z AUTO 28005KT 260V330 9999 RA FEW008/// SCT058/// OVC080/// ///CB 15/15 Q1017 TEMPO 4000 RA BKN008 BKN040 FEW060CB
4:00 am
V
59 °F 6¼ mi+ 4.800 ft 290° 290° 6 kt METAR LFBO 270200Z AUTO 29006KT 9999 -RA FEW008/// SCT030/// BKN048/// //////CB 15/15 Q1017 TEMPO 4000 RA BKN008 BKN040 FEW060CB
3:30 am
M
59 °F 5⅝ mi 2.100 ft 280° 280° 11 kt METAR LFBO 270130Z AUTO 28011KT 9000 FEW008/// BKN021/// BKN026/// //////CB 15/15 Q1017 TEMPO 4000 RA BKN008 BKN040 FEW060CB
3:00 am
M
61 °F 6¼ mi+ 2.000 ft 280° 280° 10 kt METAR LFBO 270100Z AUTO 28010KT 9999 FEW014 OVC020 16/14 Q1017 TEMPO 4000 RA BKN008 BKN040 FEW060CB
2:30 am
M
61 °F 6¼ mi+ 2.200 ft 280° 280° 8 kt METAR LFBO 270030Z AUTO 28008KT 9999 FEW008 BKN022 OVC040 16/15 Q1017 TEMPO 4000 RA BKN008 BKN040 FEW060CB
2:00 am
M
61 °F 6¼ mi+ 1.700 ft 300° 300° 8 kt METAR LFBO 270000Z AUTO 30008KT 9999 FEW008 OVC017 16/15 Q1016 TEMPO 4000 RA BKN008 BKN040 FEW060CB
1:30 am
M
61 °F 5 mi 1.500 ft 310° 310° 6 kt METAR LFBO 262330Z AUTO 31006KT 8000 -RA FEW007/// BKN015/// BKN029/// //////TCU 16/15 Q1016 TEMPO 4000 RA BKN008 BKN040 FEW060CB
1:00 am
M
61 °F 6¼ mi+ 1.500 ft 280° 280° 8 kt METAR LFBO 262300Z AUTO 28008KT 9999 FEW007/// BKN015/// BKN030/// //////TCU 16/14 Q1017 BECMG BKN012
12:30 am
M
61 °F 6¼ mi+ 1.400 ft 280° 280° 9 kt METAR LFBO 262230Z AUTO 28009KT 9999 -RA BKN014/// BKN026/// OVC040/// //////CB 16/14 Q1017 BECMG BKN012
12:00 am
M
61 °F 6¼ mi+ 1.300 ft 280° 280° 9 kt METAR LFBO 262200Z AUTO 28009KT 9999 BKN013/// BKN018/// BKN026/// ///TCU 16/14 Q1017 BECMG BKN012

26 czerwca 2022

Czas Kod Pogoda Temp. Widoczność Sufit Wiatr METAR/SPECI
11:30 pm
M
61 °F 6¼ mi+ 2.600 ft 280° 280° 10 kt METAR LFBO 262130Z AUTO 28010KT 9999 FEW013 SCT020 OVC026 16/14 Q1016 BECMG BKN012
11:00 pm
M
61 °F 6¼ mi+ 2.500 ft 270° 270° 8 kt METAR LFBO 262100Z AUTO 27008KT 9999 OVC025 16/14 Q1016 BECMG BKN012
10:30 pm
M
61 °F 6¼ mi+ 2.500 ft 260° 260° 9 kt METAR LFBO 262030Z AUTO 26009KT 9999 OVC025 16/14 Q1016 BECMG BKN012
10:00 pm
M
61 °F 6¼ mi+ 2.300 ft 290° 290° 8 kt METAR LFBO 262000Z AUTO 29008KT 9999 FEW009 BKN023 OVC028 16/15 Q1015 TEMPO -TSRA SCT030CB
9:30 pm
M
63 °F 6¼ mi+ 1.900 ft 280° 280° 9 kt METAR LFBO 261930Z AUTO 28009KT 9999 FEW009 OVC019 17/15 Q1015 TEMPO -TSRA SCT030CB
9:00 pm
M
63 °F 6¼ mi+ 2.000 ft 280° 280° 12 kt METAR LFBO 261900Z AUTO 28012KT 9999 BKN020 OVC026 17/15 Q1015 TEMPO -TSRA SCT030CB
8:30 pm
M
64 °F 6¼ mi+ 2.200 ft 280° 280° 7 kt METAR LFBO 261830Z AUTO 28007KT 9999 BKN022 OVC030 18/15 Q1014 TEMPO -TSRA SCT030CB
8:00 pm
M
64 °F 6¼ mi+ 2.000 ft 280° 280° 6 kt METAR LFBO 261800Z AUTO 28006KT 9999 BKN020 OVC026 18/15 Q1014 TEMPO -TSRA SCT030CB
7:30 pm
M
64 °F 6¼ mi+ 2.200 ft 300° 300° 7 kt METAR LFBO 261730Z AUTO 30007KT 260V320 9999 BKN022 BKN027 OVC032 18/14 Q1014 TEMPO 4500 SHRA SCT030CB
7:00 pm
M
64 °F 6¼ mi+ 2.300 ft 280° 280° 8 kt METAR LFBO 261700Z AUTO 28008KT 9999 BKN023 OVC029 18/14 Q1013 TEMPO 4500 SHRA SCT030CB
6:30 pm
M
64 °F 6¼ mi+ 1.800 ft 310° 310° 9 kt METAR LFBO 261630Z AUTO 31009KT 9999 BKN018 OVC024 18/14 Q1013 TEMPO 4500 SHRA SCT030CB
6:00 pm
M
64 °F 6¼ mi+ 1.800 ft 300° 300° 8 kt METAR LFBO 261600Z AUTO 30008KT 270V330 9999 BKN018 OVC023 18/15 Q1014 TEMPO 4500 -SHRA BKN012 SCT025TCU
5:30 pm
M
64 °F 6¼ mi+ 1.800 ft 300° 300° 10 kt METAR LFBO 261530Z AUTO 30010KT 9999 OVC018 18/15 Q1013 TEMPO 4500 -SHRA BKN012 SCT025TCU
5:00 pm
M
66 °F 6¼ mi+ 1.700 ft 280° 280° 9 kt METAR LFBO 261500Z AUTO 28009KT 9999 BKN017 OVC022 19/15 Q1013 TEMPO 4500 -SHRA BKN012 SCT025TCU
4:30 pm
M
66 °F 6¼ mi+ 1.900 ft 290° 290° 9 kt METAR LFBO 261430Z AUTO 29009KT 9999 OVC019 19/15 Q1013 TEMPO 4500 -SHRA BKN012 SCT025TCU
4:00 pm
M
64 °F 6¼ mi+ 1.700 ft 290° 290° 10 kt METAR LFBO 261400Z AUTO 29010KT 250V310 9999 OVC017 18/14 Q1013 TEMPO 4500 -SHRA BKN012 SCT025TCU
3:30 pm
M
66 °F 6¼ mi+ 1.800 ft 300° 300° 6 kt METAR LFBO 261330Z AUTO 30006KT 270V340 9999 OVC018 19/14 Q1013 TEMPO 4500 -SHRA BKN012 SCT025TCU
3:00 pm
M
66 °F 6¼ mi+ 1.600 ft 290° 290° 7 kt METAR LFBO 261300Z AUTO 29007KT 260V330 9999 OVC016 19/15 Q1013 TEMPO 4500 -SHRA BKN012 SCT025TCU
2:30 pm
M
64 °F 6¼ mi+ 1.500 ft 320° 320° 8 kt METAR LFBO 261230Z AUTO 32008KT 290V360 9999 OVC015 18/15 Q1013 TEMPO 4500 -SHRA BKN012 SCT025TCU
2:00 pm
M
64 °F 6¼ mi+ 1.600 ft 320° 320° 6 kt METAR LFBO 261200Z AUTO 32006KT 300V010 9999 OVC016 18/15 Q1013 TEMPO 4000 -RA BKN012 FEW050CB
1:30 pm
M
64 °F 6¼ mi+ 1.500 ft 340° 340° 5 kt METAR LFBO 261130Z AUTO 34005KT 310V020 9999 OVC015 18/15 Q1013 TEMPO 4000 -RA BKN012 FEW050CB
1:00 pm
M
64 °F 6¼ mi+ 1.300 ft 330° 330° 5 kt METAR LFBO 261100Z AUTO 33005KT 290V360 9999 FEW009/// BKN013/// OVC019/// ///CB 18/14 Q1013 TEMPO 4000 -RA BKN030
12:30 pm
M
63 °F 6¼ mi+ 1.300 ft 310° 310° 4 kt METAR LFBO 261030Z AUTO 31004KT 9999 -RA OVC013/// ///TCU 17/14 Q1014 TEMPO 4000 -RA BKN012 FEW050CB
12:00 pm
M
63 °F 6¼ mi+ 1.300 ft 330° 330° 4 kt METAR LFBO 261000Z AUTO 33004KT 300V010 9999 -RA OVC013/// //////TCU 17/14 Q1014 BECMG BKN030
11:30 am
M
61 °F 6¼ mi+ 1.100 ft 300° 300° 6 kt METAR LFBO 260930Z AUTO 30006KT 9999 OVC011/// //////TCU 16/14 Q1014 BECMG BKN030
11:00 am
M
61 °F 6¼ mi+ 1.100 ft 330° 330° 5 kt METAR LFBO 260900Z AUTO 33005KT 280V010 9999 OVC011 16/14 Q1014 NOSIG
10:30 am
M
61 °F 6¼ mi+ 1.000 ft 330° 330° 6 kt METAR LFBO 260830Z AUTO 33006KT 300V360 9999 OVC010 16/14 Q1014 NOSIG
10:00 am
I
61 °F 6¼ mi+ 800 ft 310° 310° 6 kt METAR LFBO 260800Z AUTO 31006KT 9999 BKN008 OVC012 16/14 Q1014 BECMG BKN012
9:30 am
I
59 °F 6¼ mi+ 800 ft 310° 310° 8 kt METAR LFBO 260730Z AUTO 31008KT 9999 OVC008 15/14 Q1014 BECMG BKN012
9:00 am
I
59 °F 6¼ mi+ 800 ft 320° 320° 9 kt METAR LFBO 260700Z AUTO 32009KT 9999 OVC008 15/14 Q1014 BECMG BKN012
8:30 am
I
59 °F 6¼ mi+ 800 ft 310° 310° 8 kt METAR LFBO 260630Z AUTO 31008KT 9999 OVC008 15/14 Q1014 BECMG BKN012
8:00 am
I
59 °F 6¼ mi+ 800 ft 320° 320° 9 kt METAR LFBO 260600Z AUTO 32009KT 9999 BKN008 OVC012 15/14 Q1014 NOSIG
7:30 am
I
59 °F 6¼ mi+ 700 ft 320° 320° 9 kt METAR LFBO 260530Z AUTO 32009KT 9999 BKN007 OVC013 15/14 Q1015 NOSIG
7:00 am
I
59 °F 6¼ mi+ 700 ft 310° 310° 9 kt METAR LFBO 260500Z AUTO 31009KT 9999 OVC007 15/14 Q1014 NOSIG
6:30 am
I
61 °F 6¼ mi+ 900 ft 310° 310° 8 kt METAR LFBO 260430Z AUTO 31008KT 9999 OVC009 16/15 Q1014 NOSIG
6:00 am
I
61 °F 6¼ mi+ 800 ft 320° 320° 8 kt METAR LFBO 260400Z AUTO 32008KT 9999 BKN008 OVC036 16/15 Q1014 NOSIG
5:30 am
I
61 °F 6¼ mi+ 700 ft 320° 320° 10 kt METAR LFBO 260330Z AUTO 32010KT 9999 BKN007 BKN013 BKN036 16/15 Q1014 NOSIG
5:00 am
M
61 °F 3¾ mi 1.300 ft 320° 320° 9 kt METAR LFBO 260300Z AUTO 32009KT 6000 -RADZ SCT009 BKN013 BKN027 16/15 Q1014 TEMPO BKN008
4:30 am
M
61 °F 6¼ mi+ 1.000 ft 310° 310° 9 kt METAR LFBO 260230Z AUTO 31009KT 9999 BKN010 BKN014 OVC029 16/15 Q1014 NOSIG
4:00 am
M
61 °F 6¼ mi+ 2.100 ft 310° 310° 8 kt METAR LFBO 260200Z AUTO 31008KT 9999 FEW009 BKN021 OVC028 16/15 Q1014 TEMPO BKN008
3:30 am
M
61 °F 6¼ mi+ 1.900 ft 310° 310° 8 kt METAR LFBO 260130Z AUTO 31008KT 9999 OVC019/// ///TCU 16/15 Q1014 TEMPO BKN008
3:00 am
M
61 °F 6¼ mi+ 1.300 ft 310° 310° 10 kt METAR LFBO 260100Z AUTO 31010KT 9999 OVC013 16/15 Q1014 TEMPO 4000 RA BKN008 FEW050CB
2:30 am
M
61 °F 6¼ mi+ 1.600 ft 300° 300° 7 kt METAR LFBO 260030Z AUTO 30007KT 9999 -RA SCT011/// BKN016/// BKN035/// //////TCU 16/15 Q1014 TEMPO 4000 RA BKN008 FEW050CB
2:00 am
M
63 °F 6¼ mi+ 1.700 ft 310° 310° 9 kt METAR LFBO 260000Z AUTO 31009KT 9999 FEW010/// BKN017/// BKN031/// ///CB 17/15 Q1014 TEMPO 4000 RA BKN008 FEW050CB
1:30 am
M
63 °F 6¼ mi+ 2.900 ft 280° 280° 7 kt METAR LFBO 252330Z AUTO 28007KT 9999 SCT017/// BKN029/// OVC043/// ///CB 17/15 Q1015 TEMPO 4000 RA BKN008 FEW050CB
1:00 am
V
63 °F 6¼ mi+ 4.200 ft 280° 280° 5 kt METAR LFBO 252300Z AUTO 28005KT 9999 SCT029/// BKN042/// BKN058/// ///TCU 17/16 Q1015 TEMPO 4000 RA BKN012 BKN030 FEW050CB
12:30 am
V
63 °F 6¼ mi+ 4.200 ft 310° 310° 5 kt METAR LFBO 252230Z AUTO 31005KT 280V340 9999 BKN042 BKN130 OVC170 17/16 Q1014 TEMPO 4000 RA BKN012 BKN030 FEW050CB
12:00 am
V
63 °F 6¼ mi+ 12.000 ft 330° 330° 6 kt METAR LFBO 252200Z AUTO 33006KT 300V020 9999 -RA FEW046/// SCT082/// BKN120/// ///CB 17/15 Q1014 TEMPO 4000 RA BKN012 BKN030 FEW050CB

25 czerwca 2022

Czas Kod Pogoda Temp. Widoczność Sufit Wiatr METAR/SPECI
11:30 pm
M
63 °F 3⅛ mi - 310° 310° 8 kt METAR LFBO 252130Z AUTO 31008KT 5000 RA BR //////CB 17/16 Q1015 TEMPO BKN012 BKN030 FEW050CB
11:00 pm
V
64 °F 6¼ mi+ - 310° 310° 9 kt METAR LFBO 252100Z AUTO 31009KT 9999 //////TCU 18/15 Q1015 TEMPO 4000 RA BKN012 BKN030 FEW050CB
10:30 pm
V
66 °F 6¼ mi+ 5.400 ft 330° 330° 11 kt METAR LFBO 252030Z AUTO 33011KT 9999 FEW016/// OVC054/// //////CB 19/15 Q1014 TEMPO 4000 RA BKN012 BKN030 FEW050CB
10:00 pm
V
66 °F 6¼ mi+ 5.600 ft 310° 310° 12 kt METAR LFBO 252000Z AUTO 31012KT 9999 -RA FEW018/// OVC056/// //////CB 19/15 Q1014 TEMPO 4000 RA FEW025 SCT040 OVC070
9:30 pm
V
68 °F 6¼ mi+ - 330° 330° 12 kt METAR LFBO 251930Z AUTO 33012KT CAVOK 20/15 Q1014 TEMPO 4000 RA BKN012 BKN030 FEW050CB
9:00 pm
V
68 °F 6¼ mi+ 5.600 ft 330° 330° 12 kt METAR LFBO 251900Z AUTO 33012KT 9999 FEW022 OVC056 20/15 Q1013 NOSIG
8:30 pm
V
68 °F 6¼ mi+ 5.200 ft 340° 340° 11 kt METAR LFBO 251830Z AUTO 34011KT 9999 FEW022 OVC052 20/15 Q1013 NOSIG
8:00 pm
V
70 °F 6¼ mi+ 4.900 ft 320° 320° 13 kt METAR LFBO 251800Z AUTO 32013KT 9999 FEW024 OVC049 21/15 Q1013 NOSIG
7:30 pm
V
72 °F 6¼ mi+ 4.800 ft 320° 320° 15 kt METAR LFBO 251730Z AUTO 32015KT 9999 SCT028 BKN048 BKN060 22/15 Q1012 TEMPO 32020G30KT 4000 TSRA FEW050CB BKN110
7:00 pm
V
72 °F 6¼ mi+ 5.600 ft 320° 320° 14 kt METAR LFBO 251700Z AUTO 32014KT 9999 FEW030 BKN056 BKN160 22/15 Q1012 TEMPO 32020G30KT 4000 TSRA BECMG FEW050CB BKN110
6:30 pm
V
73 °F 6¼ mi+ 6.000 ft 330° 330° 14 kt METAR LFBO 251630Z AUTO 33014KT 9999 FEW031 BKN060 BKN140 23/15 Q1012 TEMPO 32020G30KT 4000 TSRA BECMG FEW050CB BKN110
6:00 pm
V
75 °F 6¼ mi+ 4.700 ft 310° 310° 14 kt METAR LFBO 251600Z AUTO 31014KT 9999 FEW030 BKN047 BKN060 24/15 Q1012 TEMPO 32020G30KT 4000 TSRA BECMG FEW050CB BKN110
5:30 pm
V
75 °F 6¼ mi+ 4.600 ft 310° 310° 15 kt METAR LFBO 251530Z AUTO 31015KT 280V350 9999 FEW030 BKN046 BKN056 24/15 Q1012 TEMPO 32020G30KT 4000 TSRA BECMG FEW050CB BKN110
5:00 pm
V
73 °F 6¼ mi+ 3.900 ft 300° 300° 15 kt METAR LFBO 251500Z AUTO 30015KT 9999 BKN039 OVC046 23/15 Q1012 TEMPO 32020G30KT 4000 TSRA BECMG FEW050CB BKN110
Starsze dane

Pobierz naszą aplikację

Łatwy dostęp do całej pogody lotniczej na telefonie komórkowym i tablecie.
Z wieloma funkcjami niedostępnymi na stronie internetowej, takimi jak wsparcie offline i osobista lista lotnisk.

My i osoby trzecie śledzimy twoje zachowanie w internecie na naszej stronie za pomocą plików cookie. Jeśli kontynuujesz, zakładamy, że zgadzasz się z naszą polityką plików cookie. Dowiedz się więcej